sensor_id;sensor_type;location;lat;lon;timestamp;temperature;humidity
47368;DHT22;34646;47.964;7.982;2023-07-29T00:01:23;20.40;91.90
47368;DHT22;34646;47.964;7.982;2023-07-29T00:07:23;20.30;91.90
47368;DHT22;34646;47.964;7.982;2023-07-29T00:13:24;20.00;91.50
47368;DHT22;34646;47.964;7.982;2023-07-29T00:25:26;20.30;91.90
47368;DHT22;34646;47.964;7.982;2023-07-29T00:31:27;20.10;91.60
47368;DHT22;34646;47.964;7.982;2023-07-29T00:37:28;20.10;91.60
47368;DHT22;34646;47.964;7.982;2023-07-29T00:43:29;20.50;85.70
47368;DHT22;34646;47.964;7.982;2023-07-29T00:55:30;20.40;91.90
47368;DHT22;34646;47.964;7.982;2023-07-29T01:01:31;20.30;91.80
47368;DHT22;34646;47.964;7.982;2023-07-29T01:14:02;20.40;91.90
47368;DHT22;34646;47.964;7.982;2023-07-29T01:20:17;20.40;91.90
47368;DHT22;34646;47.964;7.982;2023-07-29T01:26:20;20.20;91.80
47368;DHT22;34646;47.964;7.982;2023-07-29T01:32:53;20.50;91.80
47368;DHT22;34646;47.964;7.982;2023-07-29T01:38:55;20.50;91.80
47368;DHT22;34646;47.964;7.982;2023-07-29T01:44:56;20.30;91.80
47368;DHT22;34646;47.964;7.982;2023-07-29T01:56:58;20.30;91.70
47368;DHT22;34646;47.964;7.982;2023-07-29T02:02:59;20.40;91.70
47368;DHT22;34646;47.964;7.982;2023-07-29T02:09:00;20.30;91.70
47368;DHT22;34646;47.964;7.982;2023-07-29T02:15:01;20.20;91.70
47368;DHT22;34646;47.964;7.982;2023-07-29T02:21:01;20.30;91.70
47368;DHT22;34646;47.964;7.982;2023-07-29T02:27:02;20.30;91.70
47368;DHT22;34646;47.964;7.982;2023-07-29T02:33:03;20.20;91.70
47368;DHT22;34646;47.964;7.982;2023-07-29T02:39:04;20.20;91.60
47368;DHT22;34646;47.964;7.982;2023-07-29T02:45:05;20.20;91.70
47368;DHT22;34646;47.964;7.982;2023-07-29T02:57:11;20.40;91.70
47368;DHT22;34646;47.964;7.982;2023-07-29T03:03:12;20.40;91.70
47368;DHT22;34646;47.964;7.982;2023-07-29T03:09:12;20.20;91.60
47368;DHT22;34646;47.964;7.982;2023-07-29T03:15:13;20.10;91.60
47368;DHT22;34646;47.964;7.982;2023-07-29T03:21:14;20.20;91.60
47368;DHT22;34646;47.964;7.982;2023-07-29T03:27:15;20.30;91.60
47368;DHT22;34646;47.964;7.982;2023-07-29T03:33:16;20.30;91.70
47368;DHT22;34646;47.964;7.982;2023-07-29T03:39:17;20.30;91.60
47368;DHT22;34646;47.964;7.982;2023-07-29T03:45:17;20.40;91.70
47368;DHT22;34646;47.964;7.982;2023-07-29T03:51:18;20.10;91.40
47368;DHT22;34646;47.964;7.982;2023-07-29T03:57:19;20.00;91.60
47368;DHT22;34646;47.964;7.982;2023-07-29T04:03:20;20.40;91.70
47368;DHT22;34646;47.964;7.982;2023-07-29T04:15:23;20.30;91.70
47368;DHT22;34646;47.964;7.982;2023-07-29T04:21:25;20.20;91.60
47368;DHT22;34646;47.964;7.982;2023-07-29T04:27:26;20.10;91.40
47368;DHT22;34646;47.964;7.982;2023-07-29T04:33:26;20.50;91.40
47368;DHT22;34646;47.964;7.982;2023-07-29T04:39:27;20.30;93.80
47368;DHT22;34646;47.964;7.982;2023-07-29T04:45:31;20.10;95.10
47368;DHT22;34646;47.964;7.982;2023-07-29T04:51:31;20.10;95.90
47368;DHT22;34646;47.964;7.982;2023-07-29T04:57:32;20.00;96.10
47368;DHT22;34646;47.964;7.982;2023-07-29T05:03:33;19.90;96.50
47368;DHT22;34646;47.964;7.982;2023-07-29T05:09:33;19.90;96.80
47368;DHT22;34646;47.964;7.982;2023-07-29T05:15:35;20.10;96.90
47368;DHT22;34646;47.964;7.982;2023-07-29T05:21:37;19.80;96.10
47368;DHT22;34646;47.964;7.982;2023-07-29T05:27:38;19.70;96.10
47368;DHT22;34646;47.964;7.982;2023-07-29T05:33:39;20.20;96.20
47368;DHT22;34646;47.964;7.982;2023-07-29T05:39:41;19.80;96.10
47368;DHT22;34646;47.964;7.982;2023-07-29T05:45:42;20.00;96.40
47368;DHT22;34646;47.964;7.982;2023-07-29T05:51:43;20.30;94.00
47368;DHT22;34646;47.964;7.982;2023-07-29T05:57:44;19.90;95.90
47368;DHT22;34646;47.964;7.982;2023-07-29T06:03:44;20.00;96.20
47368;DHT22;34646;47.964;7.982;2023-07-29T06:09:47;20.00;96.30
47368;DHT22;34646;47.964;7.982;2023-07-29T06:15:48;20.30;96.10
47368;DHT22;34646;47.964;7.982;2023-07-29T06:21:49;20.20;96.40
47368;DHT22;34646;47.964;7.982;2023-07-29T06:27:49;20.30;95.80
47368;DHT22;34646;47.964;7.982;2023-07-29T06:33:50;20.10;95.40
47368;DHT22;34646;47.964;7.982;2023-07-29T06:39:51;20.40;91.70
47368;DHT22;34646;47.964;7.982;2023-07-29T06:45:51;20.10;94.80
47368;DHT22;34646;47.964;7.982;2023-07-29T06:51:52;20.50;94.80
47368;DHT22;34646;47.964;7.982;2023-07-29T06:57:53;20.10;94.90
47368;DHT22;34646;47.964;7.982;2023-07-29T07:03:54;20.40;95.10
47368;DHT22;34646;47.964;7.982;2023-07-29T07:09:54;20.30;95.20
47368;DHT22;34646;47.964;7.982;2023-07-29T07:15:55;20.30;95.20
47368;DHT22;34646;47.964;7.982;2023-07-29T07:21:57;20.00;95.00
47368;DHT22;34646;47.964;7.982;2023-07-29T07:27:57;20.50;95.10
47368;DHT22;34646;47.964;7.982;2023-07-29T07:33:58;20.70;95.20
47368;DHT22;34646;47.964;7.982;2023-07-29T07:39:58;20.20;95.00
47368;DHT22;34646;47.964;7.982;2023-07-29T07:46:03;20.50;95.10
47368;DHT22;34646;47.964;7.982;2023-07-29T07:52:04;20.60;95.10
47368;DHT22;34646;47.964;7.982;2023-07-29T07:58:04;20.40;95.40
47368;DHT22;34646;47.964;7.982;2023-07-29T08:04:06;20.30;95.90
47368;DHT22;34646;47.964;7.982;2023-07-29T08:10:07;20.20;95.40
47368;DHT22;34646;47.964;7.982;2023-07-29T08:16:08;19.70;91.30
47368;DHT22;34646;47.964;7.982;2023-07-29T08:22:08;20.50;95.50
47368;DHT22;34646;47.964;7.982;2023-07-29T08:34:11;20.40;95.50
47368;DHT22;34646;47.964;7.982;2023-07-29T08:40:13;20.40;96.20
47368;DHT22;34646;47.964;7.982;2023-07-29T08:46:14;20.60;96.30
47368;DHT22;34646;47.964;7.982;2023-07-29T08:52:16;20.90;96.10
47368;DHT22;34646;47.964;7.982;2023-07-29T08:58:17;20.30;95.70
47368;DHT22;34646;47.964;7.982;2023-07-29T09:04:18;20.50;96.00
47368;DHT22;34646;47.964;7.982;2023-07-29T09:10:22;20.20;95.60
47368;DHT22;34646;47.964;7.982;2023-07-29T09:16:24;20.30;95.70
47368;DHT22;34646;47.964;7.982;2023-07-29T09:22:27;20.20;91.50
47368;DHT22;34646;47.964;7.982;2023-07-29T09:28:35;20.60;95.60
47368;DHT22;34646;47.964;7.982;2023-07-29T09:34:41;20.60;95.40
47368;DHT22;34646;47.964;7.982;2023-07-29T09:40:42;20.30;95.80
47368;DHT22;34646;47.964;7.982;2023-07-29T09:46:46;20.30;95.30
47368;DHT22;34646;47.964;7.982;2023-07-29T09:52:46;20.20;91.80
47368;DHT22;34646;47.964;7.982;2023-07-29T09:58:48;20.60;95.50
47368;DHT22;34646;47.964;7.982;2023-07-29T10:04:50;20.60;91.60
47368;DHT22;34646;47.964;7.982;2023-07-29T10:10:52;20.60;95.30
47368;DHT22;34646;47.964;7.982;2023-07-29T10:16:55;20.50;93.00
47368;DHT22;34646;47.964;7.982;2023-07-29T10:22:59;20.60;95.30
47368;DHT22;34646;47.964;7.982;2023-07-29T10:29:01;20.80;95.50
47368;DHT22;34646;47.964;7.982;2023-07-29T10:35:05;20.60;95.30
47368;DHT22;34646;47.964;7.982;2023-07-29T10:41:06;20.50;95.00
47368;DHT22;34646;47.964;7.982;2023-07-29T10:47:13;20.60;95.20
47368;DHT22;34646;47.964;7.982;2023-07-29T10:53:16;20.30;94.70
47368;DHT22;34646;47.964;7.982;2023-07-29T11:05:18;20.80;94.90
47368;DHT22;34646;47.964;7.982;2023-07-29T11:11:19;20.70;91.50
47368;DHT22;34646;47.964;7.982;2023-07-29T11:17:20;21.10;94.40
47368;DHT22;34646;47.964;7.982;2023-07-29T11:23:27;21.20;94.20
47368;DHT22;34646;47.964;7.982;2023-07-29T11:29:29;21.30;94.40
47368;DHT22;34646;47.964;7.982;2023-07-29T11:35:29;21.30;94.00
47368;DHT22;34646;47.964;7.982;2023-07-29T11:41:33;21.10;94.00
47368;DHT22;34646;47.964;7.982;2023-07-29T11:47:34;21.00;94.10
47368;DHT22;34646;47.964;7.982;2023-07-29T11:53:38;21.30;93.50
47368;DHT22;34646;47.964;7.982;2023-07-29T11:59:39;21.00;93.70
47368;DHT22;34646;47.964;7.982;2023-07-29T12:05:40;21.40;90.20
47368;DHT22;34646;47.964;7.982;2023-07-29T12:11:41;20.80;94.20
47368;DHT22;34646;47.964;7.982;2023-07-29T12:17:42;20.90;94.20
47368;DHT22;34646;47.964;7.982;2023-07-29T12:23:43;20.80;94.50
47368;DHT22;34646;47.964;7.982;2023-07-29T12:29:44;20.60;94.10
47368;DHT22;34646;47.964;7.982;2023-07-29T12:35:46;21.10;94.30
47368;DHT22;34646;47.964;7.982;2023-07-29T12:41:51;20.80;94.20
47368;DHT22;34646;47.964;7.982;2023-07-29T12:47:52;21.00;94.30
47368;DHT22;34646;47.964;7.982;2023-07-29T12:53:53;20.70;94.20
47368;DHT22;34646;47.964;7.982;2023-07-29T12:59:54;20.70;94.10
47368;DHT22;34646;47.964;7.982;2023-07-29T13:05:55;21.30;94.30
47368;DHT22;34646;47.964;7.982;2023-07-29T13:11:56;20.80;94.20
47368;DHT22;34646;47.964;7.982;2023-07-29T13:17:56;20.80;94.20
47368;DHT22;34646;47.964;7.982;2023-07-29T13:23:57;20.80;94.50
47368;DHT22;34646;47.964;7.982;2023-07-29T13:29:58;20.90;94.50
47368;DHT22;34646;47.964;7.982;2023-07-29T13:35:58;20.90;94.50
47368;DHT22;34646;47.964;7.982;2023-07-29T13:41:59;20.80;94.40
47368;DHT22;34646;47.964;7.982;2023-07-29T13:47:59;21.00;94.50
47368;DHT22;34646;47.964;7.982;2023-07-29T13:54:00;20.50;94.10
47368;DHT22;34646;47.964;7.982;2023-07-29T14:00:01;20.80;94.40
47368;DHT22;34646;47.964;7.982;2023-07-29T14:06:11;20.90;94.50
47368;DHT22;34646;47.964;7.982;2023-07-29T14:12:12;20.90;94.40
47368;DHT22;34646;47.964;7.982;2023-07-29T14:18:15;20.80;94.20
47368;DHT22;34646;47.964;7.982;2023-07-29T14:24:15;21.10;94.20
47368;DHT22;34646;47.964;7.982;2023-07-29T14:30:17;20.50;94.00
47368;DHT22;34646;47.964;7.982;2023-07-29T14:36:18;20.80;94.10
47368;DHT22;34646;47.964;7.982;2023-07-29T14:42:18;20.80;94.30
47368;DHT22;34646;47.964;7.982;2023-07-29T14:48:19;20.80;94.30
47368;DHT22;34646;47.964;7.982;2023-07-29T14:54:20;20.80;94.00
47368;DHT22;34646;47.964;7.982;2023-07-29T15:00:20;20.60;94.20
47368;DHT22;34646;47.964;7.982;2023-07-29T15:06:21;20.80;94.20
47368;DHT22;34646;47.964;7.982;2023-07-29T15:12:22;20.60;94.20
47368;DHT22;34646;47.964;7.982;2023-07-29T15:18:22;20.40;93.90
47368;DHT22;34646;47.964;7.982;2023-07-29T15:30:25;21.00;93.90
47368;DHT22;34646;47.964;7.982;2023-07-29T15:36:26;21.10;93.90
47368;DHT22;34646;47.964;7.982;2023-07-29T15:42:27;20.80;94.20
47368;DHT22;34646;47.964;7.982;2023-07-29T15:48:27;20.80;94.00
47368;DHT22;34646;47.964;7.982;2023-07-29T15:54:28;21.00;94.10
47368;DHT22;34646;47.964;7.982;2023-07-29T16:00:29;20.90;94.20
47368;DHT22;34646;47.964;7.982;2023-07-29T16:06:29;21.00;91.60
47368;DHT22;34646;47.964;7.982;2023-07-29T16:12:30;20.60;93.90
47368;DHT22;34646;47.964;7.982;2023-07-29T16:18:35;20.90;94.30
47368;DHT22;34646;47.964;7.982;2023-07-29T16:24:36;20.80;94.10
47368;DHT22;34646;47.964;7.982;2023-07-29T16:30:37;20.90;93.90
47368;DHT22;34646;47.964;7.982;2023-07-29T16:36:37;20.60;93.80
47368;DHT22;34646;47.964;7.982;2023-07-29T16:42:38;20.90;94.20
47368;DHT22;34646;47.964;7.982;2023-07-29T16:48:39;20.70;94.10
47368;DHT22;34646;47.964;7.982;2023-07-29T16:54:39;20.80;94.10
47368;DHT22;34646;47.964;7.982;2023-07-29T17:06:42;20.90;93.70
47368;DHT22;34646;47.964;7.982;2023-07-29T17:12:43;21.10;90.20
47368;DHT22;34646;47.964;7.982;2023-07-29T17:18:43;20.90;93.70
47368;DHT22;34646;47.964;7.982;2023-07-29T17:24:44;20.70;93.70
47368;DHT22;34646;47.964;7.982;2023-07-29T17:30:49;21.00;94.00
47368;DHT22;34646;47.964;7.982;2023-07-29T17:42:52;21.00;93.70
47368;DHT22;34646;47.964;7.982;2023-07-29T17:48:53;20.80;93.90
47368;DHT22;34646;47.964;7.982;2023-07-29T17:54:53;20.90;93.90
47368;DHT22;34646;47.964;7.982;2023-07-29T18:00:54;20.70;93.80
47368;DHT22;34646;47.964;7.982;2023-07-29T18:06:58;20.70;93.60
47368;DHT22;34646;47.964;7.982;2023-07-29T18:12:59;20.80;93.80
47368;DHT22;34646;47.964;7.982;2023-07-29T18:19:01;21.20;93.70
47368;DHT22;34646;47.964;7.982;2023-07-29T18:25:02;20.90;93.50
47368;DHT22;34646;47.964;7.982;2023-07-29T18:31:04;20.60;93.50
47368;DHT22;34646;47.964;7.982;2023-07-29T18:37:05;21.00;93.50
47368;DHT22;34646;47.964;7.982;2023-07-29T18:43:05;21.00;93.80
47368;DHT22;34646;47.964;7.982;2023-07-29T18:49:06;20.90;93.50
47368;DHT22;34646;47.964;7.982;2023-07-29T18:55:08;21.40;93.90
47368;DHT22;34646;47.964;7.982;2023-07-29T19:01:09;21.00;93.70
47368;DHT22;34646;47.964;7.982;2023-07-29T19:13:14;20.80;93.70
47368;DHT22;34646;47.964;7.982;2023-07-29T19:25:16;20.90;93.70
47368;DHT22;34646;47.964;7.982;2023-07-29T19:31:16;21.10;93.40
47368;DHT22;34646;47.964;7.982;2023-07-29T19:37:17;20.80;93.60
47368;DHT22;34646;47.964;7.982;2023-07-29T19:43:19;21.10;93.40
47368;DHT22;34646;47.964;7.982;2023-07-29T19:49:20;20.70;93.30
47368;DHT22;34646;47.964;7.982;2023-07-29T19:55:20;20.80;93.60
47368;DHT22;34646;47.964;7.982;2023-07-29T20:01:21;20.80;93.30
47368;DHT22;34646;47.964;7.982;2023-07-29T20:07:22;20.90;93.60
47368;DHT22;34646;47.964;7.982;2023-07-29T20:13:23;20.80;93.30
47368;DHT22;34646;47.964;7.982;2023-07-29T20:19:28;21.00;93.70
47368;DHT22;34646;47.964;7.982;2023-07-29T20:25:29;20.80;93.30
47368;DHT22;34646;47.964;7.982;2023-07-29T20:31:30;20.80;93.50
47368;DHT22;34646;47.964;7.982;2023-07-29T20:37:31;21.10;93.40
47368;DHT22;34646;47.964;7.982;2023-07-29T20:43:32;21.00;93.60
47368;DHT22;34646;47.964;7.982;2023-07-29T20:49:32;20.80;93.50
47368;DHT22;34646;47.964;7.982;2023-07-29T20:55:33;20.80;93.30
47368;DHT22;34646;47.964;7.982;2023-07-29T21:01:34;21.00;93.30
47368;DHT22;34646;47.964;7.982;2023-07-29T21:07:35;21.20;93.40
47368;DHT22;34646;47.964;7.982;2023-07-29T21:13:35;21.00;93.30
47368;DHT22;34646;47.964;7.982;2023-07-29T21:19:36;21.00;93.60
47368;DHT22;34646;47.964;7.982;2023-07-29T21:25:37;20.70;93.30
47368;DHT22;34646;47.964;7.982;2023-07-29T21:37:38;21.20;93.40
47368;DHT22;34646;47.964;7.982;2023-07-29T21:43:40;21.10;93.30
47368;DHT22;34646;47.964;7.982;2023-07-29T21:49:41;20.90;93.30
47368;DHT22;34646;47.964;7.982;2023-07-29T21:55:42;20.90;93.50
47368;DHT22;34646;47.964;7.982;2023-07-29T22:01:42;20.70;93.50
47368;DHT22;34646;47.964;7.982;2023-07-29T22:07:43;20.90;93.50
47368;DHT22;34646;47.964;7.982;2023-07-29T22:13:44;21.40;93.30
47368;DHT22;34646;47.964;7.982;2023-07-29T22:19:44;20.90;93.50
47368;DHT22;34646;47.964;7.982;2023-07-29T22:25:58;20.90;93.50
47368;DHT22;34646;47.964;7.982;2023-07-29T22:31:59;20.70;93.20
47368;DHT22;34646;47.964;7.982;2023-07-29T22:44:00;20.90;93.50
47368;DHT22;34646;47.964;7.982;2023-07-29T22:50:01;21.10;93.20
47368;DHT22;34646;47.964;7.982;2023-07-29T22:56:04;21.00;93.20
47368;DHT22;34646;47.964;7.982;2023-07-29T23:02:04;20.90;93.40
47368;DHT22;34646;47.964;7.982;2023-07-29T23:14:06;21.00;93.50
47368;DHT22;34646;47.964;7.982;2023-07-29T23:20:07;20.80;93.40
47368;DHT22;34646;47.964;7.982;2023-07-29T23:26:08;20.80;93.40
47368;DHT22;34646;47.964;7.982;2023-07-29T23:32:09;20.50;93.00
47368;DHT22;34646;47.964;7.982;2023-07-29T23:38:09;21.00;93.40
47368;DHT22;34646;47.964;7.982;2023-07-29T23:44:10;20.90;93.40
47368;DHT22;34646;47.964;7.982;2023-07-29T23:50:11;20.60;93.00
47368;DHT22;34646;47.964;7.982;2023-07-29T23:56:12;20.80;93.30
